Impacts TAF Board INFO
FOR SITUATIONAL AWARENESS. NOT TO BE USED FOR FLIGHT PLANNING PURPOSES.
IDs:

KPHL - Philadelphia Intl, PA, US

Issued at 1137 UTC 19 Jun 2018
Updated at 1235 UTC 19 Jun 2018
Potential Impact None Slight Moderate High
Time1154Z 19/13Z 19/14Z 19/15Z 19/16Z 19/17Z 19/18Z 19/19Z 19/20Z 19/21Z 19/22Z 19/23Z 20/00Z 20/01Z>>
Type OBS PRVL PRVL PRVL PRVL PRVL PRVL PRVL PRVL PRVL PRVL PRVL PRVL PRVL
VIS 10 >6 >6 >6 >6 >6 >6 >6 >6 >6 >6 >6 >6 >6
CIG 150 150 60 60 60 60 60 60 60 60 60 60 60 --
Cover OVC BKN BKN BKN BKN BKN BKN BKN BKN BKN BKN BKN BKN SKC
FltCat VFR VFR VFR VFR VFR VFR VFR VFR VFR VFR VFR VFR VFR VFR
WX -- VCSH -- -- -- -- -- -- -- -- -- -- -- --
WDir 310 290 340 340 340 340 340 340 340 340 340 340 340 10
WSpd 5 8 12 12 12 12 12 12 12 12 12 12 12 5
WGst -- -- -- -- -- -- -- -- -- -- -- -- -- --

Raw TAF
KPHL 191137Z 1912/2018 29008KT P6SM VCSH SCT060 BKN150
  FM191400 34012KT P6SM BKN060
  FM200100 01005KT P6SM SKC
  FM200900 06006KT P6SM BKN200
  FM201300 13007KT P6SM BKN150


Raw METAR
KPHL 191154Z 31005KT 10SM FEW020 BKN150 OVC250 27/21 A2981 RMK AO2 SLP092 60000 T02670211 10283 20261 50007 $
KPHL 191054Z 29008KT 10SM FEW050 SCT150 BKN160 OVC220 27/21 A2981 RMK AO2 SLP094 T02670211 $
KPHL 190954Z 29009KT 10SM BKN110 BKN150 OVC200 26/21 A2979 RMK AO2 RAB0858E38 SLP087 P0000 T02610211 $

METAR Board
Radar Display
Forecast Discussion

FOR SITUATIONAL AWARENESS. NOT TO BE USED FOR FLIGHT PLANNING PURPOSES.